createdAt,value
2018-05-15T00:01:57.120Z,100886
2018-05-15T00:04:25.420Z,100887
2018-05-15T00:06:53.943Z,100897
2018-05-15T00:09:22.139Z,100889
2018-05-15T00:11:50.344Z,100887
2018-05-15T00:14:19.550Z,100880
2018-05-15T00:16:47.828Z,100877
2018-05-15T00:19:16.610Z,100885
2018-05-15T00:21:44.868Z,100880
2018-05-15T00:24:13.933Z,100881
2018-05-15T00:26:42.142Z,100887
2018-05-15T00:29:10.684Z,100886
2018-05-15T00:31:38.954Z,100887
2018-05-15T00:34:08.062Z,100883
2018-05-15T00:36:36.284Z,100881
2018-05-15T00:39:05.389Z,100873
2018-05-15T00:41:33.603Z,100879
2018-05-15T00:44:03.506Z,100886
2018-05-15T00:46:31.697Z,100885
2018-05-15T00:48:59.896Z,100879
2018-05-15T00:51:28.084Z,100882
2018-05-15T00:53:56.279Z,100883
2018-05-15T00:56:24.496Z,100881
2018-05-15T00:58:52.704Z,100882
2018-05-15T01:01:20.907Z,100880
2018-05-15T01:03:49.122Z,100875
2018-05-15T01:06:17.814Z,100886
2018-05-15T01:08:46.087Z,100881
2018-05-15T01:11:14.279Z,100879
2018-05-15T01:13:42.555Z,100880
2018-05-15T01:16:10.751Z,100877
2018-05-15T01:18:39.091Z,100883
2018-05-15T01:21:07.268Z,100871
2018-05-15T01:23:35.461Z,100873
2018-05-15T01:26:03.659Z,100864
2018-05-15T01:28:31.887Z,100865
2018-05-15T01:31:01.007Z,100861
2018-05-15T01:33:29.395Z,100851
2018-05-15T01:35:57.580Z,100855
2018-05-15T01:38:25.749Z,100846
2018-05-15T01:40:54.108Z,100849
2018-05-15T01:43:22.285Z,100849
2018-05-15T01:45:50.478Z,100847
2018-05-15T01:48:18.788Z,100844
2018-05-15T01:50:47.908Z,100838
2018-05-15T01:53:16.088Z,100839
2018-05-15T01:55:45.068Z,100831
2018-05-15T01:58:14.036Z,100837
2018-05-15T02:00:42.224Z,100835
2018-05-15T02:03:12.334Z,100838
2018-05-15T02:05:40.698Z,100844
2018-05-15T02:08:10.280Z,100838
2018-05-15T02:10:38.704Z,100836
2018-05-15T02:13:07.683Z,100845
2018-05-15T02:15:35.852Z,100839
2018-05-15T02:18:04.029Z,100844
2018-05-15T02:20:32.233Z,100831
2018-05-15T02:23:01.216Z,100837
2018-05-15T02:25:29.396Z,100834
2018-05-15T02:27:57.588Z,100832
2018-05-15T02:30:25.837Z,100832
2018-05-15T02:32:53.986Z,100834
2018-05-15T02:35:23.057Z,100829
2018-05-15T02:37:51.349Z,100829
2018-05-15T02:40:19.596Z,100828
2018-05-15T02:42:47.831Z,100830
2018-05-15T02:45:16.036Z,100822
2018-05-15T02:47:44.211Z,100828
2018-05-15T02:50:12.405Z,100826
2018-05-15T02:52:40.609Z,100821
2018-05-15T02:55:08.805Z,100823
2018-05-15T02:57:37.022Z,100814
2018-05-15T03:00:05.232Z,100805
2018-05-15T03:02:33.415Z,100811
2018-05-15T03:05:01.625Z,100816
2018-05-15T03:07:29.809Z,100812
2018-05-15T03:09:57.992Z,100814
2018-05-15T03:12:26.202Z,100810
2018-05-15T03:14:54.385Z,100798
2018-05-15T03:17:22.588Z,100809
2018-05-15T03:19:50.781Z,100807
2018-05-15T03:22:18.986Z,100804
2018-05-15T03:24:47.179Z,100806
2018-05-15T03:27:15.344Z,100804
2018-05-15T03:29:43.512Z,100805
2018-05-15T03:32:11.705Z,100805
2018-05-15T03:34:39.879Z,100800
2018-05-15T03:37:08.128Z,100804
2018-05-15T03:39:36.320Z,100805
2018-05-15T03:42:04.517Z,100807
2018-05-15T03:44:32.764Z,100805
2018-05-15T03:47:00.950Z,100809
2018-05-15T03:49:29.141Z,100812
2018-05-15T03:51:58.062Z,100815
2018-05-15T03:54:26.308Z,100809
2018-05-15T03:56:55.327Z,100812
2018-05-15T03:59:24.271Z,100805
2018-05-15T04:02:10.204Z,100807
2018-05-15T04:04:56.739Z,100800
2018-05-15T04:07:42.679Z,100811
2018-05-15T04:10:10.939Z,100804
2018-05-15T04:12:40.095Z,100808
2018-05-15T04:15:08.295Z,100805
2018-05-15T04:17:36.470Z,100802
2018-05-15T04:20:04.690Z,100799
2018-05-15T04:22:32.875Z,100803
2018-05-15T04:25:01.825Z,100796
2018-05-15T04:27:30.041Z,100794
2018-05-15T04:29:58.231Z,100805
2018-05-15T04:32:26.406Z,100791
2018-05-15T04:34:55.361Z,100797
2018-05-15T04:37:25.316Z,100797
2018-05-15T04:39:54.043Z,100800
2018-05-15T04:42:22.251Z,100799
2018-05-15T04:44:50.461Z,100798
2018-05-15T04:47:19.324Z,100797
2018-05-15T04:49:47.504Z,100797
2018-05-15T04:52:16.451Z,100795
2018-05-15T04:54:44.657Z,100802
2018-05-15T04:57:13.416Z,100800
2018-05-15T04:59:41.594Z,100797
2018-05-15T05:02:10.514Z,100801
2018-05-15T05:04:38.721Z,100798
2018-05-15T05:07:06.914Z,100801
2018-05-15T05:09:35.191Z,100799
2018-05-15T05:12:03.545Z,100800
2018-05-15T05:14:31.748Z,100794
2018-05-15T05:16:59.947Z,100795
2018-05-15T05:19:28.198Z,100801
2018-05-15T05:21:56.401Z,100802
2018-05-15T05:24:24.626Z,100803
2018-05-15T05:26:52.821Z,100800
2018-05-15T05:29:21.012Z,100800
2018-05-15T05:31:49.216Z,100806
2018-05-15T05:34:17.409Z,100801
2018-05-15T05:36:46.952Z,100803
2018-05-15T05:39:15.157Z,100811
2018-05-15T05:41:43.358Z,100816
2018-05-15T05:44:12.343Z,100815
2018-05-15T05:46:40.601Z,100806
2018-05-15T05:49:08.852Z,100811
2018-05-15T05:51:37.045Z,100814
2018-05-15T05:54:05.248Z,100833
2018-05-15T05:56:36.100Z,100821
2018-05-15T05:59:04.308Z,100825
2018-05-15T06:01:32.521Z,100820
2018-05-15T06:04:00.691Z,100830
2018-05-15T06:06:28.865Z,100825
2018-05-15T06:08:57.133Z,100822
2018-05-15T06:11:25.320Z,100827
2018-05-15T06:13:53.488Z,100824
2018-05-15T06:16:21.684Z,100816
2018-05-15T06:18:51.494Z,100821
2018-05-15T06:21:19.681Z,100816
2018-05-15T06:23:48.645Z,100821
2018-05-15T06:26:16.817Z,100823
2018-05-15T06:31:19.447Z,100828
2018-05-15T06:33:47.656Z,100823
2018-05-15T06:36:15.830Z,100830
2018-05-15T06:38:44.066Z,100826
2018-05-15T06:41:12.251Z,100832
2018-05-15T06:43:40.427Z,100832
2018-05-15T06:46:08.633Z,100834
2018-05-15T06:48:36.881Z,100830
2018-05-15T06:51:05.182Z,100839
2018-05-15T06:53:33.751Z,100832
2018-05-15T06:56:01.998Z,100837
2018-05-15T06:58:30.168Z,100827
2018-05-15T07:00:59.155Z,100838
2018-05-15T07:03:27.341Z,100839
2018-05-15T07:05:55.583Z,100834
2018-05-15T07:08:23.777Z,100833
2018-05-15T07:10:52.744Z,100835
2018-05-15T07:13:20.953Z,100829
2018-05-15T07:15:49.131Z,100831
2018-05-15T07:18:17.359Z,100834
2018-05-15T07:20:45.577Z,100829
2018-05-15T07:23:13.757Z,100828
2018-05-15T07:25:42.702Z,100835
2018-05-15T07:28:10.897Z,100833
2018-05-15T07:30:39.427Z,100830
2018-05-15T07:33:07.627Z,100832
2018-05-15T07:35:35.853Z,100827
2018-05-15T07:38:04.035Z,100827
2018-05-15T07:40:33.001Z,100831
2018-05-15T07:43:02.168Z,100848
2018-05-15T07:45:30.353Z,100843
2018-05-15T07:47:58.528Z,100831
2018-05-15T07:50:26.725Z,100851
2018-05-15T07:52:54.897Z,100839
2018-05-15T07:55:23.079Z,100843
2018-05-15T07:57:51.288Z,100815
2018-05-15T08:00:19.468Z,100830
2018-05-15T08:02:47.655Z,100837
2018-05-15T08:05:15.850Z,100844
2018-05-15T08:07:44.106Z,100846
2018-05-15T08:10:12.343Z,100855
2018-05-15T08:12:41.317Z,100836
2018-05-15T08:15:09.512Z,100847
2018-05-15T08:17:37.703Z,100845
2018-05-15T08:20:05.935Z,100835
2018-05-15T08:22:35.085Z,100848
2018-05-15T08:25:03.189Z,100846
2018-05-15T08:27:31.400Z,100847
2018-05-15T08:29:59.582Z,100844
2018-05-15T08:32:27.772Z,100853
2018-05-15T08:34:55.971Z,100849
2018-05-15T08:37:24.166Z,100838
2018-05-15T08:39:52.371Z,100844
2018-05-15T08:42:21.350Z,100839
2018-05-15T08:44:49.550Z,100843
2018-05-15T08:47:17.751Z,100843
2018-05-15T08:49:45.958Z,100831
2018-05-15T08:52:14.154Z,100835
2018-05-15T08:54:42.367Z,100835
2018-05-15T08:57:10.587Z,100843
2018-05-15T08:59:38.784Z,100830
2018-05-15T09:02:07.389Z,100832
2018-05-15T09:04:36.349Z,100824
2018-05-15T09:07:04.570Z,100833
2018-05-15T09:09:32.745Z,100847
2018-05-15T09:12:00.955Z,100830
2018-05-15T09:14:29.145Z,100827
2018-05-15T09:16:57.344Z,100838
2018-05-15T09:19:26.314Z,100829
2018-05-15T09:21:54.497Z,100831
2018-05-15T09:24:22.684Z,100832
2018-05-15T09:26:50.901Z,100825
2018-05-15T09:29:19.105Z,100828
2018-05-15T09:31:48.449Z,100823
2018-05-15T09:34:16.716Z,100826
2018-05-15T09:36:44.914Z,100824
2018-05-15T09:39:13.083Z,100818
2018-05-15T09:41:41.258Z,100811
2018-05-15T09:44:10.400Z,100817
2018-05-15T09:46:38.604Z,100810
2018-05-15T09:49:07.732Z,100813
2018-05-15T09:51:35.926Z,100820
2018-05-15T09:54:04.692Z,100813
2018-05-15T09:56:33.435Z,100822
2018-05-15T09:59:01.657Z,100821
2018-05-15T10:01:29.853Z,100821
2018-05-15T10:03:58.143Z,100814
2018-05-15T10:06:26.898Z,100809
2018-05-15T10:08:56.177Z,100808
2018-05-15T10:11:24.932Z,100806
2018-05-15T10:13:53.582Z,100813
2018-05-15T10:16:22.209Z,100813
2018-05-15T10:18:50.878Z,100813
2018-05-15T10:21:20.554Z,100830
2018-05-15T10:23:50.934Z,100820
2018-05-15T10:26:19.163Z,100811
2018-05-15T10:28:47.397Z,100812
2018-05-15T10:31:17.053Z,100808
2018-05-15T10:33:45.246Z,100821
2018-05-15T10:36:13.545Z,100811
2018-05-15T10:38:41.761Z,100808
2018-05-15T10:41:10.757Z,100800
2018-05-15T10:43:38.956Z,100805
2018-05-15T10:46:09.071Z,100811
2018-05-15T10:48:37.736Z,100808
2018-05-15T10:51:06.455Z,100806
2018-05-15T10:53:34.664Z,100805
2018-05-15T10:56:02.891Z,100796
2018-05-15T10:58:31.065Z,100799
2018-05-15T11:00:59.259Z,100788
2018-05-15T11:03:27.504Z,100799
2018-05-15T11:05:55.696Z,100798
2018-05-15T11:08:23.880Z,100788
2018-05-15T11:10:52.097Z,100794
2018-05-15T11:13:20.365Z,100790
2018-05-15T11:15:49.355Z,100795
2018-05-15T11:18:45.928Z,100780
2018-05-15T11:21:31.913Z,100788
2018-05-15T11:27:13.248Z,100797
2018-05-15T11:29:41.480Z,100787
2018-05-15T11:32:09.901Z,100786
2018-05-15T11:34:38.776Z,100787
2018-05-15T11:37:07.048Z,100779
2018-05-15T11:39:35.264Z,100797
2018-05-15T11:42:03.500Z,100791
2018-05-15T11:44:31.712Z,100785
2018-05-15T11:46:59.916Z,100783
2018-05-15T11:49:29.692Z,100775
2018-05-15T11:51:58.063Z,100770
2018-05-15T11:54:25.762Z,100783
2018-05-15T11:56:53.968Z,100789
2018-05-15T11:59:22.178Z,100771
2018-05-15T12:01:50.431Z,100774
2018-05-15T12:04:19.300Z,100784
2018-05-15T12:06:47.473Z,100776
2018-05-15T12:09:15.685Z,100778
2018-05-15T12:11:43.875Z,100778
2018-05-15T12:14:12.061Z,100784
2018-05-15T12:16:40.267Z,100776
2018-05-15T12:19:09.212Z,100782
2018-05-15T12:21:38.286Z,100777
2018-05-15T12:24:06.484Z,100775
2018-05-15T12:26:34.675Z,100776
2018-05-15T12:29:02.880Z,100764
2018-05-15T12:31:31.517Z,100771
2018-05-15T12:33:59.764Z,100764
2018-05-15T12:36:27.960Z,100756
2018-05-15T12:38:56.151Z,100764
2018-05-15T12:41:24.395Z,100757
2018-05-15T12:43:52.541Z,100754
2018-05-15T12:46:20.791Z,100756
2018-05-15T12:48:49.023Z,100754
2018-05-15T12:51:17.995Z,100750
2018-05-15T12:53:46.233Z,100753
2018-05-15T12:56:14.438Z,100755
2018-05-15T12:58:42.744Z,100748
2018-05-15T13:01:10.930Z,100757
2018-05-15T13:03:39.123Z,100747
2018-05-15T13:06:07.332Z,100750
2018-05-15T13:08:35.528Z,100751
2018-05-15T13:11:03.733Z,100750
2018-05-15T13:13:31.905Z,100750
2018-05-15T13:16:01.199Z,100744
2018-05-15T13:18:29.504Z,100751
2018-05-15T13:20:57.599Z,100747
2018-05-15T13:23:25.800Z,100737
2018-05-15T13:25:54.757Z,100738
2018-05-15T13:28:22.982Z,100739
2018-05-15T13:30:51.173Z,100741
2018-05-15T13:33:19.365Z,100750
2018-05-15T13:35:47.565Z,100728
2018-05-15T13:38:15.765Z,100731
2018-05-15T13:40:44.707Z,100737
2018-05-15T13:43:13.008Z,100726
2018-05-15T13:45:41.165Z,100722
2018-05-15T13:48:09.416Z,100722
2018-05-15T13:50:37.724Z,100718
2018-05-15T13:53:05.817Z,100725
2018-05-15T13:55:34.053Z,100708
2018-05-15T13:58:02.246Z,100700
2018-05-15T14:00:30.474Z,100700
2018-05-15T14:02:58.664Z,100702
2018-05-15T14:05:26.843Z,100695
2018-05-15T14:07:55.013Z,100693
2018-05-15T14:10:23.208Z,100702
2018-05-15T14:12:51.397Z,100703
2018-05-15T14:15:19.590Z,100699
2018-05-15T14:17:49.165Z,100702
2018-05-15T14:20:17.369Z,100703
2018-05-15T14:22:45.589Z,100703
2018-05-15T14:25:13.793Z,100700
2018-05-15T14:27:42.010Z,100707
2018-05-15T14:30:10.225Z,100705
2018-05-15T14:32:38.434Z,100708
2018-05-15T14:35:06.637Z,100710
2018-05-15T14:37:34.843Z,100711
2018-05-15T14:40:03.018Z,100712
2018-05-15T14:42:49.596Z,100710
2018-05-15T14:45:17.826Z,100711
2018-05-15T14:47:46.039Z,100725
2018-05-15T14:50:15.788Z,100727
2018-05-15T14:52:43.984Z,100733
2018-05-15T14:55:12.869Z,100730
2018-05-15T14:57:41.061Z,100716
2018-05-15T15:00:09.337Z,100700
2018-05-15T15:02:37.924Z,100699
2018-05-15T15:05:06.137Z,100705
2018-05-15T15:07:34.320Z,100695
2018-05-15T15:10:02.515Z,100700
2018-05-15T15:12:30.715Z,100699
2018-05-15T15:14:58.909Z,100692
2018-05-15T15:17:27.166Z,100689
2018-05-15T15:19:55.385Z,100698
2018-05-15T15:22:23.581Z,100692
2018-05-15T15:24:51.762Z,100691
2018-05-15T15:27:19.976Z,100694
2018-05-15T15:29:48.155Z,100692
2018-05-15T15:32:17.102Z,100691
2018-05-15T15:34:45.335Z,100689
2018-05-15T15:37:13.520Z,100690
2018-05-15T15:39:41.798Z,100694
2018-05-15T15:42:10.154Z,100698
2018-05-15T15:44:38.549Z,100695
2018-05-15T15:47:06.740Z,100686
2018-05-15T15:49:34.936Z,100688
2018-05-15T15:52:03.123Z,100691
2018-05-15T15:54:32.269Z,100683
2018-05-15T15:57:01.233Z,100680
2018-05-15T15:59:29.410Z,100682
2018-05-15T16:01:57.653Z,100682
2018-05-15T16:04:25.868Z,100689
2018-05-15T16:06:54.057Z,100687
2018-05-15T16:09:22.241Z,100688
2018-05-15T16:11:51.200Z,100685
2018-05-15T16:14:19.376Z,100685
2018-05-15T16:16:47.694Z,100679
2018-05-15T16:19:15.952Z,100682
2018-05-15T16:21:44.138Z,100687
2018-05-15T16:24:13.102Z,100672
2018-05-15T16:26:41.974Z,100677
2018-05-15T16:29:11.044Z,100682
2018-05-15T16:31:39.237Z,100673
2018-05-15T16:34:08.181Z,100677
2018-05-15T16:36:37.580Z,100676
2018-05-15T16:39:06.521Z,100679
2018-05-15T16:41:34.718Z,100675
2018-05-15T16:44:02.990Z,100671
2018-05-15T16:46:31.172Z,100677
2018-05-15T16:48:59.432Z,100680
2018-05-15T16:51:27.659Z,100677
2018-05-15T16:53:55.834Z,100677
2018-05-15T16:56:24.044Z,100686
2018-05-15T16:58:52.237Z,100677
2018-05-15T17:01:20.449Z,100684
2018-05-15T17:03:48.645Z,100679
2018-05-15T17:06:16.910Z,100674
2018-05-15T17:08:45.557Z,100679
2018-05-15T17:11:13.795Z,100686
2018-05-15T17:13:42.169Z,100665
2018-05-15T17:16:10.257Z,100665
2018-05-15T17:18:38.538Z,100680
2018-05-15T17:21:06.904Z,100668
2018-05-15T17:23:35.550Z,100680
2018-05-15T17:26:03.740Z,100670
2018-05-15T17:28:32.705Z,100674
2018-05-15T17:31:00.896Z,100683
2018-05-15T17:33:29.867Z,100679
2018-05-15T17:35:58.070Z,100675
2018-05-15T17:38:26.244Z,100675
2018-05-15T17:40:54.535Z,100688
2018-05-15T17:43:22.743Z,100678
2018-05-15T17:45:52.127Z,100686
2018-05-15T17:48:20.321Z,100696
2018-05-15T17:50:50.957Z,100696
2018-05-15T17:53:19.998Z,100699
2018-05-15T17:55:49.570Z,100709
2018-05-15T17:58:18.443Z,100687
2018-05-15T18:00:46.649Z,100687
2018-05-15T18:03:16.757Z,100701
2018-05-15T18:05:47.317Z,100701
2018-05-15T18:08:17.186Z,100696
2018-05-15T18:10:47.011Z,100697
2018-05-15T18:13:17.544Z,100703
2018-05-15T18:15:47.200Z,100696
2018-05-15T18:18:17.143Z,100701
2018-05-15T18:20:46.709Z,100700
2018-05-15T18:23:14.940Z,100714
2018-05-15T18:25:43.843Z,100710
2018-05-15T18:28:13.647Z,100712
2018-05-15T18:30:43.889Z,100712
2018-05-15T18:33:15.975Z,100712
2018-05-15T18:35:45.820Z,100727
2018-05-15T18:38:16.789Z,100722
2018-05-15T18:40:46.705Z,100719
2018-05-15T18:43:19.867Z,100728
2018-05-15T18:45:50.461Z,100725
2018-05-15T18:48:24.020Z,100729
2018-05-15T18:50:53.624Z,100732
2018-05-15T18:53:26.254Z,100728
2018-05-15T18:55:57.129Z,100728
2018-05-15T18:58:26.649Z,100732
2018-05-15T19:00:57.307Z,100737
2018-05-15T19:03:27.132Z,100741
2018-05-15T19:05:57.037Z,100736
2018-05-15T19:08:27.828Z,100743
2018-05-15T19:10:57.923Z,100730
2018-05-15T19:13:26.801Z,100735
2018-05-15T19:15:57.592Z,100742
2018-05-15T19:18:28.344Z,100747
2018-05-15T19:20:57.027Z,100748
2018-05-15T19:23:26.226Z,100758
2018-05-15T19:25:55.347Z,100762
2018-05-15T19:28:24.482Z,100765
2018-05-15T19:30:53.166Z,100767
2018-05-15T19:33:27.718Z,100773
2018-05-15T19:36:02.055Z,100775
2018-05-15T19:38:30.623Z,100773
2018-05-15T19:40:59.617Z,100772
2018-05-15T19:43:27.927Z,100779
2018-05-15T19:45:57.499Z,100773
2018-05-15T19:48:26.789Z,100782
2018-05-15T19:50:56.061Z,100782
2018-05-15T19:53:26.460Z,100785
2018-05-15T19:55:55.399Z,100786
2018-05-15T19:58:24.149Z,100780
2018-05-15T20:00:52.370Z,100789
2018-05-15T20:03:20.562Z,100797
2018-05-15T20:05:48.748Z,100790
2018-05-15T20:08:16.981Z,100798
2018-05-15T20:10:45.172Z,100803
2018-05-15T20:13:13.356Z,100809
2018-05-15T20:15:43.135Z,100815
2018-05-15T20:18:12.210Z,100814
2018-05-15T20:20:40.863Z,100822
2018-05-15T20:23:09.124Z,100819
2018-05-15T20:25:37.341Z,100817
2018-05-15T20:28:05.863Z,100829
2018-05-15T20:30:34.094Z,100827
2018-05-15T20:33:02.301Z,100833
2018-05-15T20:35:30.584Z,100838
2018-05-15T20:37:58.785Z,100844
2018-05-15T20:40:26.969Z,100851
2018-05-15T20:42:55.168Z,100851
2018-05-15T20:45:24.126Z,100849
2018-05-15T20:47:52.303Z,100852
2018-05-15T20:50:22.755Z,100849
2018-05-15T20:52:51.728Z,100852
2018-05-15T20:55:19.935Z,100884
2018-05-15T20:57:48.134Z,100832
2018-05-15T21:00:16.844Z,100865
2018-05-15T21:02:45.282Z,100857
2018-05-15T21:05:13.450Z,100862
2018-05-15T21:07:42.476Z,100862
2018-05-15T21:10:10.657Z,100857
2018-05-15T21:12:38.940Z,100869
2018-05-15T21:15:07.747Z,100871
2018-05-15T21:17:35.905Z,100880
2018-05-15T21:20:04.136Z,100872
2018-05-15T21:22:32.304Z,100870
2018-05-15T21:25:01.255Z,100885
2018-05-15T21:27:29.474Z,100876
2018-05-15T21:29:57.656Z,100877
2018-05-15T21:32:26.370Z,100882
2018-05-15T21:34:54.569Z,100872
2018-05-15T21:37:22.789Z,100874
2018-05-15T21:39:51.015Z,100875
2018-05-15T21:42:19.237Z,100892
2018-05-15T21:44:47.418Z,100885
2018-05-15T21:47:15.644Z,100889
2018-05-15T21:49:43.837Z,100890
2018-05-15T21:52:12.041Z,100892
2018-05-15T21:54:41.044Z,100882
2018-05-15T21:57:10.548Z,100886
2018-05-15T21:59:38.759Z,100888
2018-05-15T22:02:06.971Z,100883
2018-05-15T22:04:35.165Z,100883
2018-05-15T22:07:03.640Z,100884
2018-05-15T22:09:31.881Z,100896
2018-05-15T22:12:17.686Z,100894
2018-05-15T22:15:04.447Z,100902
2018-05-15T22:17:50.262Z,100891
2018-05-15T22:20:36.302Z,100884
2018-05-15T22:23:03.701Z,100890
2018-05-15T22:25:31.878Z,100894
2018-05-15T22:28:00.747Z,100901
2018-05-15T22:30:29.576Z,100914
2018-05-15T22:32:57.886Z,100897
2018-05-15T22:35:26.116Z,100915
2018-05-15T22:37:54.321Z,100908
2018-05-15T22:40:22.510Z,100903
2018-05-15T22:42:50.686Z,100912
2018-05-15T22:45:18.892Z,100912
2018-05-15T22:47:47.072Z,100910
2018-05-15T22:50:15.252Z,100910
2018-05-15T22:52:43.469Z,100911
2018-05-15T22:55:12.439Z,100910
2018-05-15T22:57:40.707Z,100920
2018-05-15T23:00:09.810Z,100912
2018-05-15T23:02:38.010Z,100924
2018-05-15T23:05:06.228Z,100924
2018-05-15T23:07:34.432Z,100920
2018-05-15T23:10:02.618Z,100918
2018-05-15T23:12:30.793Z,100924
2018-05-15T23:15:01.485Z,100918
2018-05-15T23:17:29.710Z,100921
2018-05-15T23:19:57.918Z,100915
2018-05-15T23:22:42.832Z,100919
2018-05-15T23:25:11.045Z,100924
2018-05-15T23:27:39.230Z,100928
2018-05-15T23:30:07.439Z,100924
2018-05-15T23:32:35.626Z,100920
2018-05-15T23:35:03.871Z,100910
2018-05-15T23:37:32.070Z,100930
2018-05-15T23:40:00.251Z,100922
2018-05-15T23:42:28.432Z,100926
2018-05-15T23:44:56.637Z,100932
2018-05-15T23:47:25.093Z,100933
2018-05-15T23:49:53.336Z,100936
2018-05-15T23:52:22.193Z,100935
2018-05-15T23:54:50.383Z,100938
2018-05-15T23:57:18.573Z,100940
2018-05-15T23:59:46.781Z,100942
